Time;durP1;ratioP1;P1;durP2;ratioP2;P2;SDS_P1;SDS_P2;PMS_P1;PMS_P2;Temp;Humidity;BMP_temperature;BMP_pressure;BME280_temperature;BME280_humidity;BME280_pressure;Samples;Min_cycle;Max_cycle;Signal;HPM_P1;HPM_P2
2023/11/10 00:00:12;;;;;;;5.80;3.70;;;;;;;2.63;85.60;99022.13;105817;1257;61173;-26
2023/11/10 00:02:42;;;;;;;13.20;5.20;;;;;;;2.33;86.52;99024.23;105918;1256;73826;-26
2023/11/10 00:05:09;;;;;;;7.70;3.70;;;;;;;2.06;87.51;99020.86;105934;1251;73099;-26
2023/11/10 00:07:38;;;;;;;9.70;3.40;;;;;;;1.86;88.53;99018.17;105837;1255;72595;-26
2023/11/10 00:10:07;;;;;;;13.10;4.70;;;;;;;2.25;88.27;99017.38;105749;1251;61068;-27
2023/11/10 00:12:34;;;;;;;12.00;4.10;;;;;;;2.74;86.42;99011.61;105811;1257;61180;-26
2023/11/10 00:15:01;;;;;;;4.80;3.60;;;;;;;2.78;85.66;99010.04;105703;1251;73787;-26
2023/11/10 00:17:28;;;;;;;6.50;3.30;;;;;;;2.62;86.56;99010.34;105695;1256;74315;-26
2023/11/10 00:19:55;;;;;;;7.90;4.10;;;;;;;2.41;88.37;99011.19;105665;1253;72758;-25
2023/11/10 00:22:22;;;;;;;4.20;3.50;;;;;;;2.25;89.67;99012.76;105910;1257;61050;-26
2023/11/10 00:24:49;;;;;;;4.30;2.80;;;;;;;2.35;90.31;99009.58;105949;1251;61185;-26
2023/11/10 00:27:16;;;;;;;6.20;3.90;;;;;;;2.96;88.44;99011.36;105936;1251;73793;-26
2023/11/10 00:29:44;;;;;;;6.10;3.10;;;;;;;3.24;87.25;99015.13;105869;1255;74377;-26
2023/11/10 00:32:12;;;;;;;6.10;3.80;;;;;;;3.21;87.15;99013.56;105639;1255;71341;-26
2023/11/10 00:34:40;;;;;;;4.60;3.00;;;;;;;3.04;87.86;99008.60;105678;1253;61234;-26
2023/11/10 00:37:07;;;;;;;4.10;2.70;;;;;;;2.84;88.62;99007.16;105738;1254;61228;-27
2023/11/10 00:39:34;;;;;;;5.60;2.40;;;;;;;2.67;89.76;99004.58;105657;1251;73227;-26
2023/11/10 00:42:01;;;;;;;6.40;3.70;;;;;;;3.17;89.49;99002.08;105579;1251;74320;-26
2023/11/10 00:44:29;;;;;;;3.50;2.60;;;;;;;3.71;86.81;98997.56;105533;1255;72734;-26
2023/11/10 00:46:56;;;;;;;7.70;3.70;;;;;;;3.71;85.93;98996.52;105693;1251;61060;-26
2023/11/10 00:49:23;;;;;;;6.80;3.80;;;;;;;3.56;86.23;98992.69;105692;1251;61156;-26
2023/11/10 00:51:50;;;;;;;8.20;3.50;;;;;;;3.37;87.02;98989.92;105978;1251;73825;-26
2023/11/10 00:54:17;;;;;;;4.90;2.30;;;;;;;3.16;87.71;98984.63;105831;1256;74906;-26
2023/11/10 00:56:44;;;;;;;3.70;2.50;;;;;;;3.21;88.58;98987.11;105639;1253;72570;-26
2023/11/10 00:59:11;;;;;;;8.60;3.30;;;;;;;3.73;86.79;98982.16;105742;1251;61140;-26
2023/11/10 01:01:38;;;;;;;8.40;3.70;;;;;;;3.92;85.68;98982.17;105702;1251;61043;-26
2023/11/10 01:04:06;;;;;;;5.40;3.20;;;;;;;3.83;85.51;98979.56;105726;1251;73802;-26
2023/11/10 01:06:34;;;;;;;6.50;3.10;;;;;;;3.60;86.55;98983.52;105633;1251;74326;-26
2023/11/10 01:09:01;;;;;;;3.60;2.60;;;;;;;3.48;87.49;98980.41;105646;1251;72641;-26
2023/11/10 01:11:28;;;;;;;6.60;3.30;;;;;;;3.88;86.62;98983.95;105557;1257;61223;-26
2023/11/10 01:13:55;;;;;;;3.40;2.60;;;;;;;4.24;84.55;98987.44;105535;1251;61183;-26
2023/11/10 01:16:23;;;;;;;5.00;2.80;;;;;;;4.21;84.14;98981.80;105751;1251;73826;-26
2023/11/10 01:18:50;;;;;;;5.00;3.40;;;;;;;4.03;84.77;98985.66;105649;1256;74302;-27
2023/11/10 01:21:18;;;;;;;5.40;3.20;;;;;;;3.80;85.67;98983.35;105659;1251;73024;-26
2023/11/10 01:23:45;;;;;;;2.90;2.00;;;;;;;3.87;86.09;98982.97;105661;1251;61091;-26
2023/11/10 01:26:13;;;;;;;2.80;2.10;;;;;;;4.38;84.12;98979.98;105565;1257;61256;-26
2023/11/10 01:28:40;;;;;;;3.40;1.80;;;;;;;4.48;82.97;98981.98;105731;1251;73538;-26
2023/11/10 01:31:08;;;;;;;5.00;2.40;;;;;;;4.32;83.28;98980.66;105573;1257;74301;-26
2023/11/10 01:33:35;;;;;;;5.70;3.00;;;;;;;4.08;84.14;98982.30;105673;1251;73053;-26
2023/11/10 01:36:04;;;;;;;3.30;2.10;;;;;;;3.90;84.96;98981.41;105707;1251;61082;-26
2023/11/10 01:38:31;;;;;;;8.30;2.90;;;;;;;3.97;85.27;98981.56;105498;1259;61237;-26
2023/11/10 01:40:58;;;;;;;5.30;2.30;;;;;;;4.41;83.51;98980.81;105947;1251;73927;-26
2023/11/10 01:43:25;;;;;;;5.30;3.00;;;;;;;4.34;82.95;98977.78;105869;1251;74235;-25
2023/11/10 01:45:53;;;;;;;7.90;3.10;;;;;;;4.14;83.70;98980.78;105803;1254;72618;-26
2023/11/10 01:48:20;;;;;;;4.60;2.30;;;;;;;3.94;84.48;98982.06;105574;1251;61177;-26
2023/11/10 01:50:47;;;;;;;2.80;1.90;;;;;;;3.76;85.36;98976.67;105588;1257;61235;-26
2023/11/10 01:53:14;;;;;;;6.90;2.50;;;;;;;3.95;85.16;98975.12;105642;1251;73715;-26
2023/11/10 01:55:43;;;;;;;10.50;2.90;;;;;;;4.37;83.51;98973.84;105903;1257;74290;-26
2023/11/10 01:58:11;;;;;;;10.40;3.10;;;;;;;4.41;82.58;98973.27;105700;1254;72650;-26
2023/11/10 02:00:39;;;;;;;6.80;2.90;;;;;;;4.20;82.70;98971.52;105836;1256;61147;-26
2023/11/10 02:03:07;;;;;;;3.40;2.60;;;;;;;3.91;83.40;98971.38;105768;1256;61266;-26
2023/11/10 02:05:34;;;;;;;8.50;3.40;;;;;;;3.61;84.81;98968.71;105913;1257;73487;-26
2023/11/10 02:08:02;;;;;;;6.30;2.60;;;;;;;3.52;85.64;98966.45;105888;1251;74193;-26
2023/11/10 02:10:31;;;;;;;3.30;2.20;;;;;;;4.01;84.38;98963.65;106018;1251;71361;-26
2023/11/10 02:12:59;;;;;;;5.00;2.20;;;;;;;4.20;82.84;98962.10;105992;1251;61093;-27
2023/11/10 02:15:27;;;;;;;4.80;3.10;;;;;;;4.01;82.95;98962.77;105829;1257;61150;-28
2023/11/10 02:17:55;;;;;;;6.60;3.10;;;;;;;3.76;83.63;98962.75;105633;1254;73793;-26
2023/11/10 02:20:23;;;;;;;5.10;2.70;;;;;;;3.47;84.63;98964.64;105873;1255;75042;-26
2023/11/10 02:22:50;;;;;;;6.80;2.90;;;;;;;3.19;85.46;98959.61;105855;1254;72713;-27
2023/11/10 02:25:18;;;;;;;5.70;3.00;;;;;;;3.16;86.37;98964.90;105758;1254;61155;-27
2023/11/10 02:27:45;;;;;;;4.70;2.60;;;;;;;3.66;84.90;98963.85;105755;1251;61148;-26
2023/11/10 02:30:13;;;;;;;7.10;3.20;;;;;;;3.79;83.80;98960.90;106004;1256;74218;-27
2023/11/10 02:32:42;;;;;;;3.60;2.70;;;;;;;3.62;83.97;98956.96;105759;1251;74320;-26
2023/11/10 02:35:10;;;;;;;5.50;3.00;;;;;;;3.38;84.62;98955.54;105886;1254;72634;-27
2023/11/10 02:37:37;;;;;;;4.30;2.60;;;;;;;3.11;85.68;98952.64;105871;1251;61011;-26
2023/11/10 02:40:07;;;;;;;4.90;2.80;;;;;;;3.03;86.45;98949.46;105683;1255;61179;-27
2023/11/10 02:42:35;;;;;;;4.20;2.50;;;;;;;3.53;85.05;98955.77;105731;1251;73695;-26
2023/11/10 02:45:03;;;;;;;4.80;3.50;;;;;;;3.72;83.91;98956.46;105634;1251;74916;-26
2023/11/10 02:47:32;;;;;;;3.20;2.00;;;;;;;3.59;83.75;98955.94;105597;1251;72768;-26
2023/11/10 02:50:00;;;;;;;4.20;2.70;;;;;;;3.31;84.66;98958.80;105585;1254;61160;-27
2023/11/10 02:52:27;;;;;;;6.20;3.00;;;;;;;3.03;85.27;98953.24;105729;1256;61178;-27
2023/11/10 02:54:54;;;;;;;4.70;3.60;;;;;;;2.74;86.44;98951.95;105914;1251;74218;-27
2023/11/10 02:57:21;;;;;;;3.50;2.40;;;;;;;2.84;87.16;98953.68;105616;1258;74572;-27
2023/11/10 02:59:49;;;;;;;3.30;2.40;;;;;;;3.34;85.57;98949.39;105851;1257;71257;-26
2023/11/10 03:02:16;;;;;;;3.80;2.20;;;;;;;3.43;84.59;98953.20;105742;1258;61516;-27
2023/11/10 03:04:43;;;;;;;4.10;2.00;;;;;;;3.25;84.85;98950.39;105922;1254;61167;-27
2023/11/10 03:07:10;;;;;;;5.60;3.00;;;;;;;2.99;85.46;98947.79;105782;1251;73615;-27
2023/11/10 03:09:40;;;;;;;6.00;3.20;;;;;;;2.72;86.53;98948.30;105571;1251;74317;-27
2023/11/10 03:12:08;;;;;;;4.50;1.90;;;;;;;2.53;87.63;98946.46;105715;1257;71502;-27
2023/11/10 03:14:36;;;;;;;4.10;2.60;;;;;;;3.08;86.74;98947.46;105473;1254;61164;-27
2023/11/10 03:17:04;;;;;;;4.40;2.70;;;;;;;3.54;84.54;98946.44;105497;1258;61176;-26
2023/11/10 03:19:31;;;;;;;4.40;2.30;;;;;;;3.52;83.83;98943.13;105555;1251;73726;-27
2023/11/10 03:21:58;;;;;;;4.20;2.70;;;;;;;3.28;84.45;98942.84;105928;1251;74628;-27
2023/11/10 03:24:26;;;;;;;5.00;2.90;;;;;;;3.01;85.35;98939.61;105547;1254;72684;-27
2023/11/10 03:26:53;;;;;;;4.80;3.10;;;;;;;2.74;86.27;98935.48;105731;1251;61044;-27
2023/11/10 03:29:20;;;;;;;3.30;2.60;;;;;;;2.55;87.30;98937.45;105612;1257;61204;-27
2023/11/10 03:31:47;;;;;;;3.50;2.40;;;;;;;2.99;86.81;98930.95;105672;1251;73772;-27
2023/11/10 03:34:15;;;;;;;4.50;2.20;;;;;;;3.37;85.07;98923.64;105686;1251;74172;-27
2023/11/10 03:36:43;;;;;;;3.80;2.50;;;;;;;3.34;84.82;98916.94;105697;1256;71412;-27
2023/11/10 03:39:10;;;;;;;4.40;2.80;;;;;;;3.16;85.19;98914.67;105304;1251;61062;-27
2023/11/10 03:41:38;;;;;;;4.60;3.20;;;;;;;2.92;85.67;98911.63;105906;1257;61163;-27
2023/11/10 03:44:05;;;;;;;4.80;3.10;;;;;;;2.65;86.65;98907.48;105789;1251;74282;-26
2023/11/10 03:46:32;;;;;;;6.00;2.70;;;;;;;2.62;87.82;98911.59;105797;1257;74151;-26
2023/11/10 03:48:59;;;;;;;4.00;2.50;;;;;;;3.15;86.26;98912.14;105649;1253;72496;-27
2023/11/10 03:51:26;;;;;;;6.10;2.80;;;;;;;3.32;85.02;98910.86;105698;1251;61055;-27
2023/11/10 03:53:53;;;;;;;5.10;3.30;;;;;;;3.22;85.26;98910.75;105698;1252;61236;-27
2023/11/10 03:56:20;;;;;;;5.50;3.40;;;;;;;3.02;85.66;98911.77;105687;1251;74341;-27
2023/11/10 03:58:47;;;;;;;5.80;3.70;;;;;;;2.80;86.10;98906.58;105637;1256;74738;-27
2023/11/10 04:01:13;;;;;;;3.20;2.10;;;;;;;2.59;87.02;98905.04;105859;1254;73191;-27
2023/11/10 04:03:42;;;;;;;4.90;2.40;;;;;;;3.01;86.79;98898.61;105824;1251;61120;-27
2023/11/10 04:06:09;;;;;;;6.40;3.50;;;;;;;3.51;84.73;98893.73;105572;1251;61100;-26
2023/11/10 04:08:36;;;;;;;6.80;3.50;;;;;;;3.55;83.95;98892.15;105971;1251;74225;-25
2023/11/10 04:11:04;;;;;;;5.90;3.20;;;;;;;3.39;84.59;98890.28;106027;1255;73829;-26
2023/11/10 04:13:31;;;;;;;6.00;3.60;;;;;;;3.15;85.61;98886.76;105959;1251;72446;-27
2023/11/10 04:15:58;;;;;;;4.80;3.00;;;;;;;2.93;86.52;98884.30;105972;1251;60975;-26
2023/11/10 04:18:28;;;;;;;4.10;2.40;;;;;;;2.93;87.34;98882.73;105881;1257;61129;-26
2023/11/10 04:20:56;;;;;;;6.10;3.20;;;;;;;3.47;85.89;98877.80;105706;1251;73750;-26
2023/11/10 04:23:25;;;;;;;6.00;3.30;;;;;;;3.67;84.58;98870.05;105646;1256;74329;-26
2023/11/10 04:25:52;;;;;;;8.20;3.80;;;;;;;3.57;84.47;98863.02;105566;1252;71689;-26
2023/11/10 04:28:19;;;;;;;7.50;3.30;;;;;;;3.35;85.16;98859.23;105742;1251;61041;-26
2023/11/10 04:30:45;;;;;;;7.30;4.30;;;;;;;3.13;86.26;98860.77;105646;1256;61179;-26
2023/11/10 04:33:13;;;;;;;7.90;3.10;;;;;;;3.14;87.15;98856.11;105575;1251;73880;-26
2023/11/10 04:35:41;;;;;;;7.10;4.10;;;;;;;3.62;85.55;98854.70;105703;1251;73112;-26
2023/11/10 04:38:09;;;;;;;8.40;5.50;;;;;;;3.83;84.11;98861.07;105679;1251;72491;-26
2023/11/10 04:40:36;;;;;;;12.20;4.10;;;;;;;3.72;84.02;98856.52;105535;1254;61223;-26
2023/11/10 04:43:05;;;;;;;5.30;3.40;;;;;;;3.50;84.73;98858.77;105653;1257;61089;-27
2023/11/10 04:45:32;;;;;;;4.60;3.50;;;;;;;3.28;85.67;98862.02;105698;1251;73523;-26
2023/11/10 04:47:59;;;;;;;6.80;3.80;;;;;;;3.24;86.43;98857.95;105520;1254;74474;-26
2023/11/10 04:50:26;;;;;;;6.70;4.00;;;;;;;3.71;85.00;98847.17;105618;1251;72710;-26
2023/11/10 04:52:53;;;;;;;6.00;3.60;;;;;;;3.89;83.47;98843.70;105648;1251;61055;-26
2023/11/10 04:55:21;;;;;;;7.30;3.70;;;;;;;3.76;83.37;98841.52;105559;1251;61143;-26
2023/11/10 04:57:48;;;;;;;6.20;3.70;;;;;;;3.56;83.94;98845.59;105598;1251;73690;-26
2023/11/10 05:00:16;;;;;;;5.10;3.60;;;;;;;3.31;84.85;98846.08;105893;1251;74422;-26
2023/11/10 05:02:44;;;;;;;5.90;3.40;;;;;;;3.23;85.77;98844.94;105716;1251;72754;-26
2023/11/10 05:05:14;;;;;;;4.00;3.00;;;;;;;3.79;84.64;98843.41;105901;1253;61127;-26
2023/11/10 05:07:41;;;;;;;5.30;3.10;;;;;;;4.11;82.74;98843.88;105844;1252;61612;-26
2023/11/10 05:10:09;;;;;;;4.30;3.00;;;;;;;4.02;82.55;98839.70;105893;1251;73821;-26
2023/11/10 05:12:37;;;;;;;5.20;3.40;;;;;;;3.83;83.04;98844.77;105807;1251;74291;-27
2023/11/10 05:15:05;;;;;;;4.90;3.40;;;;;;;3.59;83.66;98845.09;105738;1251;72616;-26
2023/11/10 05:17:34;;;;;;;5.60;3.40;;;;;;;3.34;84.62;98846.61;105511;1256;61049;-26
2023/11/10 05:20:04;;;;;;;4.30;2.70;;;;;;;3.24;85.70;98851.63;105549;1257;61134;-26
2023/11/10 05:22:32;;;;;;;6.10;3.20;;;;;;;3.78;84.50;98849.85;105761;1251;73820;-27
2023/11/10 05:25:03;;;;;;;3.70;2.50;;;;;;;4.09;82.77;98847.23;105801;1256;74174;-26
2023/11/10 05:27:31;;;;;;;3.90;3.10;;;;;;;3.99;82.46;98848.82;105784;1257;72619;-26
2023/11/10 05:29:58;;;;;;;8.60;3.20;;;;;;;3.80;83.17;98848.20;105672;1251;61055;-27
2023/11/10 05:32:26;;;;;;;3.00;2.40;;;;;;;3.58;84.02;98848.36;105688;1253;61167;-27
2023/11/10 05:34:54;;;;;;;11.10;3.60;;;;;;;3.39;85.05;98845.11;105560;1257;73691;-27
2023/11/10 05:37:21;;;;;;;5.20;3.10;;;;;;;3.58;85.45;98849.25;105627;1251;74173;-27
2023/11/10 05:39:50;;;;;;;7.00;2.60;;;;;;;4.08;83.49;98846.61;105737;1251;72650;-27
2023/11/10 05:42:20;;;;;;;3.60;3.00;;;;;;;4.22;82.51;98839.60;105604;1251;61048;-27
2023/11/10 05:44:50;;;;;;;7.30;3.20;;;;;;;4.11;82.33;98835.27;105600;1251;61103;-26
2023/11/10 05:47:17;;;;;;;7.90;4.70;;;;;;;3.91;83.06;98836.23;105837;1251;73802;-29
2023/11/10 05:49:44;;;;;;;5.70;3.70;;;;;;;3.70;84.10;98837.40;105575;1251;74192;-27
2023/11/10 05:52:12;;;;;;;5.90;4.00;;;;;;;3.73;84.82;98834.34;105801;1251;72544;-27
2023/11/10 05:54:40;;;;;;;9.90;4.30;;;;;;;4.26;83.24;98834.06;105745;1252;61104;-27
2023/11/10 05:57:07;;;;;;;5.70;3.90;;;;;;;4.50;82.31;98834.86;105732;1255;61096;-27
2023/11/10 05:59:34;;;;;;;6.80;3.40;;;;;;;4.45;82.18;98838.46;105791;1251;73611;-26
2023/11/10 06:02:02;;;;;;;5.10;3.70;;;;;;;4.33;82.57;98835.38;105752;1251;74251;-29
2023/11/10 06:04:29;;;;;;;4.10;3.20;;;;;;;4.22;83.23;98837.73;105731;1257;72677;-27
2023/11/10 06:07:03;;;;;;;4.20;2.60;;;;;;;4.12;84.15;98841.58;105688;1254;61162;-27
2023/11/10 06:09:31;;;;;;;6.70;3.70;;;;;;;4.59;83.18;98841.23;105562;1251;61122;-27
2023/11/10 06:11:58;;;;;;;5.10;3.40;;;;;;;5.03;81.22;98836.87;105805;1253;72399;-27
2023/11/10 06:14:26;;;;;;;4.60;2.60;;;;;;;5.11;80.93;98846.36;105833;1254;74300;-27
2023/11/10 06:16:53;;;;;;;4.00;3.10;;;;;;;5.04;80.69;98843.30;105674;1251;72448;-27
2023/11/10 06:19:20;;;;;;;7.60;3.40;;;;;;;4.90;81.28;98843.85;105956;1251;61130;-27
2023/11/10 06:21:50;;;;;;;6.80;4.20;;;;;;;4.79;81.86;98842.45;105959;1251;61178;-26
2023/11/10 06:24:19;;;;;;;3.80;2.70;;;;;;;4.68;82.43;98850.87;105786;1256;73933;-26
2023/11/10 06:26:47;;;;;;;5.10;3.60;;;;;;;4.93;82.09;98847.61;105721;1251;74412;-26
2023/11/10 06:29:14;;;;;;;9.00;3.80;;;;;;;5.42;79.95;98848.73;103092;1251;3367941;-26
2023/11/10 06:31:41;;;;;;;7.40;3.70;;;;;;;5.50;79.18;98851.30;105689;1251;61237;-26
2023/11/10 06:34:08;;;;;;;4.60;3.30;;;;;;;5.37;79.20;98853.34;105809;1257;61169;-26
2023/11/10 06:36:35;;;;;;;5.50;3.80;;;;;;;5.18;79.46;98851.63;105633;1251;61198;-26
2023/11/10 06:39:03;;;;;;;6.40;3.60;;;;;;;4.96;80.07;98848.65;105810;1257;61477;-26
2023/11/10 06:41:30;;;;;;;6.00;4.10;;;;;;;4.80;81.33;98848.08;105622;1251;72626;-26
2023/11/10 06:43:58;;;;;;;4.80;3.80;;;;;;;5.07;80.78;98848.48;105717;1253;61171;-26
2023/11/10 06:46:26;;;;;;;5.10;2.90;;;;;;;5.38;79.22;98847.21;105776;1251;61106;-26
2023/11/10 06:48:55;;;;;;;4.60;3.60;;;;;;;5.27;78.92;98843.84;105992;1256;71362;-26
2023/11/10 06:51:50;;;;;;;5.30;3.40;;;;;;;5.14;79.35;98848.57;102662;1289;600057;-25
2023/11/10 06:54:20;;;;;;;7.30;4.10;;;;;;;4.95;80.09;98845.39;104851;1269;61176;-25
2023/11/10 06:56:48;;;;;;;6.80;3.50;;;;;;;4.83;80.62;98839.27;104882;1263;61062;-26
2023/11/10 06:59:16;;;;;;;8.10;3.70;;;;;;;5.16;80.11;98841.38;104841;1271;72154;-27
2023/11/10 07:01:44;;;;;;;9.70;3.30;;;;;;;5.45;78.73;98835.59;104937;1271;74365;-27
2023/11/10 07:04:12;;;;;;;7.60;4.20;;;;;;;5.45;78.52;98832.85;104878;1263;73725;-25
2023/11/10 07:06:40;;;;;;;4.60;3.40;;;;;;;5.40;79.34;98827.84;102744;1267;61142;-27
2023/11/10 07:09:09;;;;;;;6.90;4.10;;;;;;;5.25;79.72;98821.91;105169;1263;61186;-27
2023/11/10 07:19:17;;;;;;;6.30;3.40;;;;;;;6.34;76.44;98811.27;102664;1293;599430;-25
2023/11/10 07:21:47;;;;;;;8.90;4.30;;;;;;;6.26;76.34;98808.53;104836;1263;61819;-25
2023/11/10 07:31:57;;;;;;;4.00;3.30;;;;;;;5.64;78.52;98809.48;102910;1289;600072;-25
2023/11/10 07:34:25;;;;;;;4.10;3.40;;;;;;;5.64;78.80;98809.59;104876;1271;61189;-24
2023/11/10 07:36:53;;;;;;;7.30;4.00;;;;;;;6.09;77.10;98807.92;104813;1266;61036;-24
2023/11/10 07:39:28;;;;;;;7.50;3.90;;;;;;;6.49;76.13;98806.15;104872;1266;72231;-26
2023/11/10 07:41:56;;;;;;;8.00;4.00;;;;;;;6.48;75.47;98804.64;104861;1272;74301;-27
2023/11/10 07:52:08;;;;;;;5.90;3.60;;;;;;;5.87;77.52;98801.73;103128;1286;600016;-26
2023/11/10 07:54:36;;;;;;;8.80;4.50;;;;;;;5.89;77.97;98796.48;104882;1267;61104;-27
2023/11/10 07:57:04;;;;;;;6.50;4.30;;;;;;;6.35;76.54;98797.05;104776;1272;61085;-27
2023/11/10 07:59:32;;;;;;;6.60;3.70;;;;;;;6.68;74.97;98794.48;104740;1267;70943;-27
2023/11/10 08:02:01;;;;;;;5.90;3.20;;;;;;;6.79;74.74;98796.68;105019;1269;74292;-27
2023/11/10 08:04:29;;;;;;;7.00;4.40;;;;;;;6.82;74.76;98791.10;104824;1267;72709;-26
2023/11/10 08:06:57;;;;;;;7.00;4.20;;;;;;;6.85;74.66;98787.61;102619;1269;61180;-24
2023/11/10 08:09:26;;;;;;;4.70;3.40;;;;;;;6.70;74.97;98781.20;105135;1264;61118;-24
2023/11/10 08:11:54;;;;;;;6.60;3.80;;;;;;;6.79;75.82;98789.73;105196;1269;72210;-24
2023/11/10 08:14:22;;;;;;;5.80;3.70;;;;;;;6.93;75.92;98788.07;105130;1263;74330;-24
2023/11/10 08:16:50;;;;;;;8.30;4.20;;;;;;;6.92;74.65;98787.83;105091;1268;71190;-24
2023/11/10 08:19:18;;;;;;;4.90;3.60;;;;;;;6.78;74.51;98786.55;105176;1267;61112;-24
2023/11/10 08:21:46;;;;;;;6.30;3.90;;;;;;;6.79;75.19;98788.52;105072;1266;61110;-24
2023/11/10 08:24:14;;;;;;;5.70;4.50;;;;;;;6.92;74.58;98792.30;104842;1272;73304;-24
2023/11/10 08:26:42;;;;;;;4.70;3.70;;;;;;;6.93;73.72;98794.80;105064;1263;74595;-24
2023/11/10 08:29:11;;;;;;;6.20;3.80;;;;;;;7.04;74.74;98794.73;104888;1272;72640;-25
2023/11/10 08:31:39;;;;;;;6.20;3.30;;;;;;;7.17;73.33;98797.23;105178;1269;61288;-24
2023/11/10 08:34:07;;;;;;;5.40;4.10;;;;;;;7.12;73.19;98798.99;104954;1264;61223;-25
2023/11/10 08:36:35;;;;;;;5.40;3.80;;;;;;;7.15;73.23;98799.63;104919;1269;73177;-24
2023/11/10 08:39:04;;;;;;;6.20;3.10;;;;;;;7.09;73.33;98801.85;104934;1269;72576;-27
2023/11/10 08:41:32;;;;;;;6.90;4.50;;;;;;;7.03;74.59;98807.05;104819;1270;70870;-25
2023/11/10 08:44:04;;;;;;;5.30;4.10;;;;;;;6.89;74.78;98806.10;105142;1262;61045;-25
2023/11/10 08:46:33;;;;;;;4.60;3.20;;;;;;;6.85;75.37;98811.42;104990;1260;61165;-25
2023/11/10 08:49:01;;;;;;;4.20;3.50;;;;;;;6.98;74.69;98810.13;105202;1272;73014;-26
2023/11/10 08:59:09;;;;;;;5.80;3.40;;;;;;;7.85;71.31;98802.21;102595;1291;599874;-26
2023/11/10 09:01:37;;;;;;;5.60;3.30;;;;;;;7.94;72.70;98800.05;104842;1266;61139;-25
2023/11/10 09:04:05;;;;;;;4.00;3.50;;;;;;;7.97;72.05;98796.12;104856;1269;61179;-25
2023/11/10 09:06:50;;;;;;;4.80;3.40;;;;;;;7.77;71.83;98793.27;104861;1266;72281;-25
2023/11/10 09:09:19;;;;;;;8.90;4.60;;;;;;;7.56;72.58;98795.55;104744;1266;72844;-25
2023/11/10 09:11:46;;;;;;;6.20;4.20;;;;;;;7.64;72.98;98793.91;102246;1266;3532861;-26
2023/11/10 09:21:58;;;;;;;9.50;4.00;;;;;;;8.15;71.83;98787.87;102645;1289;600173;-24
2023/11/10 09:24:26;;;;;;;4.60;3.10;;;;;;;8.35;72.63;98780.31;104871;1267;61157;-24
2023/11/10 09:26:55;;;;;;;9.30;4.20;;;;;;;8.57;71.31;98771.98;104833;1270;61853;-24
2023/11/10 09:29:23;;;;;;;6.10;4.10;;;;;;;8.65;70.53;98766.63;104872;1270;71323;-24
2023/11/10 09:31:51;;;;;;;7.70;4.50;;;;;;;8.63;70.63;98769.25;104774;1271;73230;-26
2023/11/10 09:34:23;;;;;;;8.90;4.00;;;;;;;9.04;70.50;98766.74;103741;1273;3417087;-27
2023/11/10 09:36:53;;;;;;;9.50;4.30;;;;;;;9.30;69.23;98757.05;104855;1265;72710;-26
2023/11/10 09:39:22;;;;;;;9.70;5.30;;;;;;;9.31;68.80;98756.45;104810;1265;61167;-26
2023/11/10 09:41:50;;;;;;;5.70;3.60;;;;;;;9.21;68.69;98759.01;104914;1264;61224;-26
2023/11/10 09:44:18;;;;;;;5.90;3.90;;;;;;;9.06;68.63;98756.21;104837;1264;72733;-26
2023/11/10 09:46:49;;;;;;;5.80;3.90;;;;;;;9.21;69.00;98759.40;104818;1271;74398;-27
2023/11/10 09:49:17;;;;;;;5.90;4.00;;;;;;;9.45;68.21;98752.19;104826;1269;72440;-26
2023/11/10 09:51:46;;;;;;;6.10;4.00;;;;;;;9.66;68.50;98748.80;104867;1266;61078;-26
2023/11/10 09:54:14;;;;;;;8.50;4.50;;;;;;;9.75;68.83;98740.77;104919;1266;61188;-26
2023/11/10 10:04:19;;;;;;;5.40;4.20;;;;;;;9.80;67.30;98727.33;102669;1290;599859;-24
2023/11/10 10:06:50;;;;;;;5.70;3.30;;;;;;;9.84;67.11;98720.61;104920;1269;61127;-24
2023/11/10 10:09:18;;;;;;;4.40;3.30;;;;;;;9.83;67.44;98722.10;104779;1271;61152;-24
2023/11/10 10:11:47;;;;;;;5.70;4.30;;;;;;;9.79;66.86;98710.77;104844;1272;73304;-24
2023/11/10 10:14:15;;;;;;;5.40;3.60;;;;;;;9.80;66.94;98713.29;105396;1254;74422;-25
2023/11/10 10:16:55;;;;;;;7.00;4.20;;;;;;;9.75;67.27;98703.48;105411;1254;3502204;-27
2023/11/10 10:19:24;;;;;;;5.20;3.20;;;;;;;9.72;67.47;98695.99;105610;1253;72641;-26
2023/11/10 10:21:52;;;;;;;4.60;3.30;;;;;;;9.74;67.22;98693.70;105769;1251;61655;-27
2023/11/10 10:24:20;;;;;;;6.30;3.80;;;;;;;9.83;67.46;98691.59;105859;1251;61019;-26
2023/11/10 10:26:48;;;;;;;6.20;3.90;;;;;;;9.87;66.47;98690.08;105736;1260;72187;-27
2023/11/10 10:29:18;;;;;;;4.40;3.00;;;;;;;9.79;67.16;98680.42;105728;1259;73324;-25
2023/11/10 10:31:46;;;;;;;5.90;3.40;;;;;;;9.77;67.40;98677.51;105482;1253;75366;-25
2023/11/10 10:34:15;;;;;;;4.90;3.70;;;;;;;9.73;67.07;98668.63;105615;1253;61087;-25
2023/11/10 10:36:44;;;;;;;4.00;2.70;;;;;;;9.77;66.70;98670.04;105665;1252;61171;-26
2023/11/10 10:39:16;;;;;;;6.00;3.80;;;;;;;9.73;66.28;98662.11;105520;1258;72172;-26
2023/11/10 10:41:44;;;;;;;4.10;2.70;;;;;;;9.98;66.68;98660.17;105629;1260;74133;-26
2023/11/10 10:44:11;;;;;;;6.00;3.20;;;;;;;10.15;65.84;98655.44;105609;1258;72176;-26
2023/11/10 10:46:39;;;;;;;6.00;3.90;;;;;;;10.24;65.15;98653.05;105642;1258;61120;-26
2023/11/10 10:49:07;;;;;;;3.50;2.70;;;;;;;10.30;65.06;98654.09;105610;1254;62015;-25
2023/11/10 10:51:37;;;;;;;5.10;2.70;;;;;;;10.33;64.84;98654.57;105634;1253;75519;-26
2023/11/10 10:54:06;;;;;;;5.80;3.50;;;;;;;10.35;65.22;98642.05;105656;1260;75093;-26
2023/11/10 10:56:38;;;;;;;7.70;4.00;;;;;;;10.36;64.76;98643.23;105462;1255;72659;-25
2023/11/10 10:59:12;;;;;;;4.00;3.10;;;;;;;10.44;64.82;98635.77;105594;1253;61237;-26
2023/11/10 11:01:44;;;;;;;5.50;3.50;;;;;;;10.48;64.09;98635.94;105629;1252;61184;-26
2023/11/10 11:04:31;;;;;;;4.30;3.10;;;;;;;10.54;63.71;98628.96;105447;1261;75024;-26
2023/11/10 11:07:05;;;;;;;8.10;3.30;;;;;;;10.50;63.52;98627.80;105695;1258;75235;-26
2023/11/10 11:10:06;;;;;;;4.50;2.80;;;;;;;10.38;63.80;98627.74;105691;1253;72110;-26
2023/11/10 11:12:55;;;;;;;4.30;2.60;;;;;;;10.55;64.84;98627.05;105311;1257;61175;-26
2023/11/10 11:15:42;;;;;;;4.80;2.70;;;;;;;10.81;63.76;98619.87;105670;1258;61224;-26
2023/11/10 11:18:18;;;;;;;3.30;2.70;;;;;;;11.15;62.45;98625.04;105685;1253;71674;-26
2023/11/10 11:20:47;;;;;;;6.40;3.00;;;;;;;11.39;61.00;98618.64;105702;1258;73585;-28
2023/11/10 11:31:08;;;;;;;7.70;3.90;;;;;;;11.60;60.52;98598.69;102628;1292;600187;-25
2023/11/10 11:33:52;;;;;;;5.50;3.50;;;;;;;11.65;59.77;98595.27;104837;1267;61190;-25
2023/11/10 11:36:20;;;;;;;4.10;3.10;;;;;;;11.67;59.68;98597.81;104766;1275;61068;-25
2023/11/10 11:38:48;;;;;;;4.80;3.00;;;;;;;11.70;59.76;98602.05;104814;1272;72110;-25
2023/11/10 11:41:18;;;;;;;4.10;2.90;;;;;;;11.69;59.22;98591.71;104719;1275;73171;-25
2023/11/10 11:43:55;;;;;;;4.70;2.70;;;;;;;11.43;58.26;98581.27;102252;1264;3449318;-25
2023/11/10 11:46:34;;;;;;;3.30;2.10;;;;;;;11.24;58.26;98582.34;104851;1263;61115;-25
2023/11/10 11:49:02;;;;;;;4.70;2.40;;;;;;;11.10;58.90;98587.60;105697;1252;61073;-25
2023/11/10 11:51:33;;;;;;;4.10;2.90;;;;;;;10.89;60.03;98596.23;105541;1259;72222;-25
2023/11/10 11:54:01;;;;;;;4.20;2.40;;;;;;;10.87;60.09;98595.55;105654;1254;73506;-25
2023/11/10 11:56:29;;;;;;;7.60;2.50;;;;;;;10.70;60.35;98586.08;105661;1260;71823;-25
2023/11/10 11:58:57;;;;;;;4.30;2.60;;;;;;;10.65;60.79;98587.45;105834;1254;61091;-25
2023/11/10 12:01:25;;;;;;;4.00;2.70;;;;;;;10.63;60.31;98582.08;105681;1254;61149;-25
2023/11/10 12:03:53;;;;;;;3.30;2.40;;;;;;;10.53;60.26;98589.88;105694;1257;74074;-25
2023/11/10 12:14:09;;;;;;;4.60;2.10;;;;;;;10.47;61.65;98594.73;102745;1289;600231;-27
2023/11/10 12:16:37;;;;;;;;;;;;;;;10.39;61.78;98598.52;104815;1266;61237;-27
2023/11/10 12:19:07;;;;;;;3.30;2.20;;;;;;;10.34;61.91;98589.98;104802;1272;61198;-28
2023/11/10 12:21:35;;;;;;;3.90;2.30;;;;;;;10.30;61.71;98587.74;104924;1266;73598;-27
2023/11/10 12:24:04;;;;;;;2.50;1.80;;;;;;;10.29;61.64;98590.56;104740;1266;74363;-28
2023/11/10 12:26:39;;;;;;;2.50;2.30;;;;;;;10.26;61.70;98597.02;102253;1272;3501996;-25
2023/11/10 12:29:19;;;;;;;4.20;2.20;;;;;;;10.31;61.96;98596.27;104874;1266;61169;-25
2023/11/10 12:31:48;;;;;;;6.60;2.90;;;;;;;10.37;61.81;98594.88;104846;1267;61244;-25
2023/11/10 12:34:16;;;;;;;4.20;2.40;;;;;;;10.43;61.59;98594.09;104859;1266;70638;-25
2023/11/10 12:36:46;;;;;;;6.20;2.90;;;;;;;10.47;62.30;98588.70;104830;1271;74332;-25
2023/11/10 12:39:19;;;;;;;4.40;2.00;;;;;;;10.38;62.33;98581.11;104848;1269;73484;-25